createdAt,value
2019-05-25T00:00:34.942Z,63.60
2019-05-25T00:03:17.351Z,63.60
2019-05-25T00:05:47.711Z,63.90
2019-05-25T00:08:17.895Z,64.70
2019-05-25T00:10:48.110Z,64.70
2019-05-25T00:13:18.316Z,65.70
2019-05-25T00:15:48.574Z,65.10
2019-05-25T00:18:18.766Z,65.20
2019-05-25T00:20:48.978Z,65.10
2019-05-25T00:23:19.244Z,65.00
2019-05-25T00:25:49.523Z,65.10
2019-05-25T00:28:19.718Z,65.30
2019-05-25T00:30:50.011Z,65.30
2019-05-25T00:33:20.261Z,65.30
2019-05-25T00:35:50.538Z,65.40
2019-05-25T00:38:20.803Z,65.10
2019-05-25T00:40:51.026Z,65.60
2019-05-25T00:43:21.224Z,65.70
2019-05-25T00:45:51.472Z,65.60
2019-05-25T00:48:21.707Z,65.50
2019-05-25T00:50:52.806Z,65.60
2019-05-25T00:53:22.990Z,65.80
2019-05-25T00:55:53.218Z,65.80
2019-05-25T00:58:23.424Z,65.70
2019-05-25T01:00:53.650Z,65.90
2019-05-25T01:06:10.352Z,66.70
2019-05-25T01:08:41.130Z,66.10
2019-05-25T01:11:11.489Z,66.40
2019-05-25T01:13:41.752Z,66.30
2019-05-25T01:16:13.305Z,66.50
2019-05-25T01:18:43.494Z,66.50
2019-05-25T01:21:14.097Z,66.50
2019-05-25T01:23:44.423Z,66.40
2019-05-25T01:26:14.636Z,66.60
2019-05-25T01:28:44.828Z,66.90
2019-05-25T01:31:16.036Z,67.00
2019-05-25T01:33:46.303Z,67.00
2019-05-25T01:36:16.527Z,67.30
2019-05-25T01:38:46.703Z,67.30
2019-05-25T01:41:16.924Z,67.30
2019-05-25T01:43:47.106Z,67.50
2019-05-25T01:46:17.344Z,68.40
2019-05-25T01:48:47.539Z,67.80
2019-05-25T01:51:17.758Z,67.60
2019-05-25T01:53:47.940Z,67.20
2019-05-25T01:56:18.146Z,67.10
2019-05-25T01:58:48.355Z,66.90
2019-05-25T02:01:18.567Z,66.30
2019-05-25T02:03:48.752Z,65.90
2019-05-25T02:06:18.958Z,65.80
2019-05-25T02:08:49.156Z,66.00
2019-05-25T02:11:19.366Z,65.70
2019-05-25T02:13:49.699Z,66.10
2019-05-25T02:16:20.055Z,65.90
2019-05-25T02:19:26.852Z,65.60
2019-05-25T02:21:57.076Z,65.90
2019-05-25T02:24:27.271Z,65.80
2019-05-25T02:26:57.467Z,65.90
2019-05-25T02:29:27.661Z,65.90
2019-05-25T02:31:58.679Z,65.80
2019-05-25T02:34:29.131Z,65.50
2019-05-25T02:36:59.349Z,65.50
2019-05-25T02:39:29.562Z,65.40
2019-05-25T02:41:59.972Z,65.30
2019-05-25T02:44:30.170Z,65.40
2019-05-25T02:47:00.483Z,65.90
2019-05-25T02:49:30.850Z,65.90
2019-05-25T02:52:01.044Z,65.70
2019-05-25T02:54:31.255Z,66.00
2019-05-25T02:57:01.457Z,66.30
2019-05-25T02:59:31.658Z,66.10
2019-05-25T03:02:02.016Z,66.30
2019-05-25T03:04:32.375Z,66.50
2019-05-25T03:07:02.550Z,66.40
2019-05-25T03:09:32.769Z,66.30
2019-05-25T03:12:02.947Z,65.90
2019-05-25T03:14:33.162Z,65.70
2019-05-25T03:17:03.423Z,66.20
2019-05-25T03:19:51.823Z,66.80
2019-05-25T03:22:22.113Z,67.20
2019-05-25T03:24:52.318Z,67.30
2019-05-25T03:27:22.536Z,67.50
2019-05-25T03:29:52.744Z,67.60
2019-05-25T03:32:23.019Z,68.00
2019-05-25T03:34:53.495Z,67.50
2019-05-25T03:37:23.768Z,67.10
2019-05-25T03:39:53.952Z,67.10
2019-05-25T03:42:24.172Z,67.00
2019-05-25T03:44:55.620Z,67.50
2019-05-25T03:47:25.835Z,67.40
2019-05-25T03:49:56.020Z,67.70
2019-05-25T03:52:26.254Z,67.70
2019-05-25T03:54:56.500Z,67.70
2019-05-25T03:57:26.785Z,67.30
2019-05-25T03:59:56.963Z,67.10
2019-05-25T04:02:27.189Z,67.00
2019-05-25T04:04:57.682Z,67.00
2019-05-25T04:07:27.884Z,66.90
2019-05-25T04:09:58.074Z,66.70
2019-05-25T04:12:28.420Z,66.90
2019-05-25T04:14:58.599Z,66.60
2019-05-25T04:17:28.831Z,66.60
2019-05-25T04:19:59.019Z,66.30
2019-05-25T04:22:29.254Z,65.70
2019-05-25T04:24:59.511Z,65.90
2019-05-25T04:27:29.711Z,65.90
2019-05-25T04:29:59.946Z,66.10
2019-05-25T04:32:30.152Z,65.20
2019-05-25T04:35:00.337Z,64.90
2019-05-25T04:37:30.537Z,65.60
2019-05-25T04:40:00.741Z,63.80
2019-05-25T04:42:31.214Z,62.10
2019-05-25T04:45:01.477Z,59.60
2019-05-25T04:47:31.791Z,57.40
2019-05-25T04:50:01.979Z,55.60
2019-05-25T04:52:32.258Z,55.30
2019-05-25T04:55:02.458Z,55.00
2019-05-25T04:57:32.815Z,55.10
2019-05-25T05:00:04.144Z,54.80
2019-05-25T05:02:34.353Z,53.90
2019-05-25T05:05:38.077Z,52.80
2019-05-25T05:08:08.368Z,52.50
2019-05-25T05:10:38.595Z,53.00
2019-05-25T05:13:08.808Z,53.10
2019-05-25T05:15:39.073Z,51.30
2019-05-25T05:18:09.481Z,50.40
2019-05-25T05:20:39.752Z,50.00
2019-05-25T05:23:09.988Z,48.20
2019-05-25T05:25:40.248Z,46.10
2019-05-25T05:28:10.534Z,44.20
2019-05-25T05:30:40.728Z,42.00
2019-05-25T05:33:10.931Z,42.00
2019-05-25T05:35:41.119Z,42.10
2019-05-25T05:38:11.445Z,43.00
2019-05-25T05:40:41.967Z,44.50
2019-05-25T05:43:12.180Z,44.20
2019-05-25T05:45:43.089Z,45.50
2019-05-25T05:48:13.635Z,44.90
2019-05-25T05:50:43.995Z,45.30
2019-05-25T05:53:14.210Z,45.40
2019-05-25T05:55:44.417Z,45.90
2019-05-25T05:58:14.646Z,44.20
2019-05-25T06:00:44.837Z,45.50
2019-05-25T06:03:15.046Z,44.50
2019-05-25T06:05:45.223Z,43.60
2019-05-25T06:08:15.446Z,42.80
2019-05-25T06:10:45.749Z,41.10
2019-05-25T06:13:16.931Z,39.00
2019-05-25T06:15:47.107Z,37.50
2019-05-25T06:18:17.376Z,36.00
2019-05-25T06:20:47.560Z,35.70
2019-05-25T06:23:17.763Z,34.50
2019-05-25T06:25:47.933Z,31.90
2019-05-25T06:28:22.159Z,33.00
2019-05-25T06:30:50.003Z,33.70
2019-05-25T06:33:20.211Z,35.40
2019-05-25T06:35:50.906Z,36.80
2019-05-25T06:38:21.028Z,38.20
2019-05-25T06:40:51.382Z,38.60
2019-05-25T06:43:21.619Z,38.90
2019-05-25T06:45:51.795Z,39.90
2019-05-25T06:48:21.999Z,40.80
2019-05-25T06:50:52.184Z,42.40
2019-05-25T06:53:22.494Z,44.10
2019-05-25T06:55:52.709Z,44.20
2019-05-25T06:58:22.910Z,44.60
2019-05-25T07:00:53.146Z,45.30
2019-05-25T07:03:23.389Z,46.10
2019-05-25T07:05:53.698Z,44.10
2019-05-25T07:08:23.927Z,43.50
2019-05-25T07:10:54.107Z,41.40
2019-05-25T07:13:24.394Z,41.40
2019-05-25T07:15:54.573Z,41.40
2019-05-25T07:18:24.771Z,41.70
2019-05-25T07:21:11.534Z,42.50
2019-05-25T07:23:41.781Z,41.40
2019-05-25T07:26:11.950Z,42.60
2019-05-25T07:28:42.156Z,42.40
2019-05-25T07:31:12.653Z,42.70
2019-05-25T07:33:42.898Z,42.90
2019-05-25T07:36:13.160Z,43.30
2019-05-25T07:38:43.340Z,43.00
2019-05-25T07:41:13.625Z,42.90
2019-05-25T07:43:43.877Z,43.30
2019-05-25T07:46:17.061Z,42.00
2019-05-25T07:48:46.283Z,42.40
2019-05-25T07:51:16.482Z,42.30
2019-05-25T07:53:46.659Z,43.30
2019-05-25T07:56:16.902Z,42.50
2019-05-25T07:58:47.129Z,43.00
2019-05-25T08:01:17.335Z,43.50
2019-05-25T08:03:47.642Z,44.40
2019-05-25T08:06:17.948Z,43.90
2019-05-25T08:08:49.658Z,43.40
2019-05-25T08:11:19.854Z,43.40
2019-05-25T08:13:50.051Z,41.40
2019-05-25T08:16:20.234Z,39.10
2019-05-25T08:18:50.440Z,38.30
2019-05-25T08:21:20.617Z,37.10
2019-05-25T08:23:50.848Z,36.90
2019-05-25T08:26:21.105Z,37.00
2019-05-25T08:28:51.564Z,36.70
2019-05-25T08:31:21.751Z,37.10
2019-05-25T08:33:51.964Z,36.60
2019-05-25T08:36:22.130Z,37.60
2019-05-25T08:39:31.240Z,38.90
2019-05-25T08:42:01.425Z,39.10
2019-05-25T08:44:31.635Z,39.20
2019-05-25T08:47:01.839Z,39.70
2019-05-25T08:49:32.035Z,39.40
2019-05-25T08:52:04.170Z,38.50
2019-05-25T08:54:34.159Z,38.70
2019-05-25T08:57:04.463Z,38.30
2019-05-25T08:59:34.671Z,36.60
2019-05-25T09:02:04.901Z,37.80
2019-05-25T09:04:35.234Z,37.90
2019-05-25T09:07:05.436Z,37.00
2019-05-25T09:09:35.638Z,37.60
2019-05-25T09:12:05.826Z,37.30
2019-05-25T09:14:36.020Z,37.60
2019-05-25T09:17:06.273Z,36.20
2019-05-25T09:19:36.473Z,34.70
2019-05-25T09:22:06.706Z,33.30
2019-05-25T09:24:36.951Z,33.70
2019-05-25T09:27:07.347Z,33.60
2019-05-25T09:29:37.698Z,31.30
2019-05-25T09:32:07.875Z,30.80
2019-05-25T09:34:38.465Z,32.10
2019-05-25T09:37:08.465Z,31.80
2019-05-25T09:39:38.680Z,32.50
2019-05-25T09:42:08.993Z,33.30
2019-05-25T09:44:39.192Z,30.80
2019-05-25T09:47:09.395Z,29.30
2019-05-25T09:49:39.572Z,30.00
2019-05-25T09:52:09.779Z,28.80
2019-05-25T09:54:39.961Z,29.10
2019-05-25T09:57:10.228Z,29.10
2019-05-25T09:59:41.569Z,29.20
2019-05-25T10:02:13.450Z,30.70
2019-05-25T10:04:44.472Z,29.30
2019-05-25T10:07:14.748Z,28.30
2019-05-25T10:09:45.008Z,28.20
2019-05-25T10:12:16.278Z,26.10
2019-05-25T10:14:47.685Z,27.90
2019-05-25T10:17:17.886Z,26.20
2019-05-25T10:19:48.075Z,24.40
2019-05-25T10:22:18.381Z,25.70
2019-05-25T10:24:48.579Z,25.90
2019-05-25T10:27:18.859Z,25.80
2019-05-25T10:29:49.040Z,27.50
2019-05-25T10:32:19.367Z,26.50
2019-05-25T10:34:49.590Z,28.00
2019-05-25T10:37:19.805Z,28.00
2019-05-25T10:39:50.106Z,28.00
2019-05-25T10:42:20.341Z,28.00
2019-05-25T10:44:50.543Z,28.50
2019-05-25T10:47:20.727Z,28.70
2019-05-25T10:49:51.046Z,28.30
2019-05-25T10:52:21.294Z,25.30
2019-05-25T10:54:51.590Z,25.90
2019-05-25T10:57:21.771Z,26.40
2019-05-25T10:59:53.427Z,27.40
2019-05-25T11:02:24.839Z,27.30
2019-05-25T11:04:55.381Z,27.90
2019-05-25T11:07:25.616Z,27.80
2019-05-25T11:09:55.904Z,28.10
2019-05-25T11:12:26.245Z,27.90
2019-05-25T11:14:57.429Z,30.50
2019-05-25T11:17:27.860Z,28.50
2019-05-25T11:19:58.207Z,27.80
2019-05-25T11:22:28.469Z,28.70
2019-05-25T11:24:58.862Z,28.70
2019-05-25T11:27:29.171Z,28.40
2019-05-25T11:30:08.639Z,25.40
2019-05-25T11:32:31.275Z,26.10
2019-05-25T11:35:01.477Z,25.30
2019-05-25T11:37:31.675Z,26.40
2019-05-25T11:40:01.883Z,26.30
2019-05-25T11:42:32.096Z,26.90
2019-05-25T11:45:02.487Z,28.30
2019-05-25T11:47:32.854Z,28.40
2019-05-25T11:50:04.292Z,29.60
2019-05-25T11:52:34.646Z,27.30
2019-05-25T11:55:10.427Z,27.10
2019-05-25T11:57:40.637Z,28.10
2019-05-25T12:00:24.846Z,27.90
2019-05-25T12:02:47.391Z,27.80
2019-05-25T12:05:17.564Z,29.20
2019-05-25T12:07:47.771Z,28.40
2019-05-25T12:10:55.650Z,28.10
2019-05-25T12:13:25.942Z,26.50
2019-05-25T12:15:56.193Z,26.00
2019-05-25T12:18:26.394Z,26.50
2019-05-25T12:20:56.572Z,26.70
2019-05-25T12:23:26.779Z,28.00
2019-05-25T12:26:16.574Z,30.80
2019-05-25T12:28:46.860Z,30.40
2019-05-25T12:31:17.050Z,30.90
2019-05-25T12:33:47.255Z,30.50
2019-05-25T12:36:17.510Z,32.20
2019-05-25T12:38:47.708Z,35.00
2019-05-25T12:41:17.936Z,34.70
2019-05-25T12:43:48.189Z,34.90
2019-05-25T12:46:18.373Z,34.40
2019-05-25T12:48:48.578Z,33.30
2019-05-25T12:51:18.756Z,34.30
2019-05-25T12:53:48.976Z,34.40
2019-05-25T12:56:19.215Z,34.10
2019-05-25T12:58:50.346Z,34.50
2019-05-25T13:01:20.466Z,34.00
2019-05-25T13:03:50.823Z,31.10
2019-05-25T13:06:21.007Z,31.50
2019-05-25T13:08:51.379Z,31.30
2019-05-25T13:11:21.780Z,32.00
2019-05-25T13:13:52.024Z,33.10
2019-05-25T13:16:22.206Z,33.70
2019-05-25T13:18:53.392Z,34.80
2019-05-25T13:21:23.585Z,34.30
2019-05-25T13:23:54.136Z,34.10
2019-05-25T13:26:24.340Z,34.30
2019-05-25T13:28:54.542Z,33.20
2019-05-25T13:31:24.797Z,32.80
2019-05-25T13:33:55.075Z,31.80
2019-05-25T13:36:25.320Z,33.50
2019-05-25T13:38:55.658Z,33.70
2019-05-25T13:41:25.851Z,33.90
2019-05-25T13:43:56.057Z,34.60
2019-05-25T13:46:26.276Z,34.40
2019-05-25T13:48:56.527Z,35.00
2019-05-25T13:51:26.755Z,35.60
2019-05-25T13:53:56.952Z,35.80
2019-05-25T13:57:07.361Z,36.30
2019-05-25T13:59:37.630Z,36.70
2019-05-25T14:02:08.787Z,36.90
2019-05-25T14:04:39.234Z,37.50
2019-05-25T14:07:09.511Z,37.70
2019-05-25T14:09:39.779Z,38.20
2019-05-25T14:12:10.112Z,38.80
2019-05-25T14:14:40.311Z,38.50
2019-05-25T14:17:10.556Z,39.10
2019-05-25T14:19:41.610Z,39.30
2019-05-25T14:22:11.927Z,41.00
2019-05-25T14:24:42.127Z,41.50
2019-05-25T14:27:32.078Z,41.40
2019-05-25T14:30:02.281Z,40.50
2019-05-25T14:32:33.735Z,41.20
2019-05-25T14:35:04.099Z,41.60
2019-05-25T14:37:34.283Z,41.20
2019-05-25T14:40:11.089Z,41.20
2019-05-25T14:46:31.055Z,40.20
2019-05-25T14:49:01.459Z,40.50
2019-05-25T14:51:32.087Z,41.00
2019-05-25T14:54:02.292Z,41.30
2019-05-25T14:56:52.527Z,40.80
2019-05-25T14:59:23.031Z,41.10
2019-05-25T15:02:01.996Z,41.70
2019-05-25T15:04:25.288Z,41.00
2019-05-25T15:06:55.494Z,40.90
2019-05-25T15:09:25.715Z,40.70
2019-05-25T15:15:46.559Z,39.90
2019-05-25T15:18:16.771Z,40.20
2019-05-25T15:20:47.135Z,39.10
2019-05-25T15:23:36.781Z,39.70
2019-05-25T15:26:07.021Z,38.20
2019-05-25T15:28:37.339Z,38.90
2019-05-25T15:31:07.585Z,38.50
2019-05-25T15:33:37.919Z,37.90
2019-05-25T15:36:08.145Z,37.60
2019-05-25T15:38:38.352Z,38.10
2019-05-25T15:41:08.725Z,37.80
2019-05-25T15:43:57.070Z,38.30
2019-05-25T15:46:27.407Z,38.50
2019-05-25T15:48:58.767Z,39.00
2019-05-25T15:51:30.432Z,38.50
2019-05-25T15:54:02.308Z,37.80
2019-05-25T15:56:32.936Z,38.60
2019-05-25T15:59:23.627Z,38.70
2019-05-25T16:01:53.445Z,37.70
2019-05-25T16:04:23.697Z,37.70
2019-05-25T16:06:54.054Z,37.20
2019-05-25T16:09:24.227Z,37.10
2019-05-25T16:11:54.441Z,37.00
2019-05-25T16:14:42.744Z,36.50
2019-05-25T16:17:12.935Z,36.90
2019-05-25T16:19:43.129Z,35.90
2019-05-25T16:22:13.479Z,36.50
2019-05-25T16:24:43.721Z,37.60
2019-05-25T16:27:13.928Z,37.20
2019-05-25T16:29:44.123Z,37.00
2019-05-25T16:32:14.355Z,36.90
2019-05-25T16:34:44.537Z,36.40
2019-05-25T16:37:14.871Z,35.60
2019-05-25T16:39:45.173Z,35.70
2019-05-25T16:42:15.476Z,35.20
2019-05-25T16:45:06.751Z,35.00
2019-05-25T16:47:37.025Z,33.70
2019-05-25T16:50:08.486Z,33.90
2019-05-25T16:52:38.829Z,34.30
2019-05-25T16:55:09.272Z,36.10
2019-05-25T16:57:39.483Z,36.20
2019-05-25T17:00:29.148Z,36.30
2019-05-25T17:02:59.409Z,37.20
2019-05-25T17:05:29.688Z,37.90
2019-05-25T17:07:59.965Z,37.90
2019-05-25T17:10:30.195Z,38.50
2019-05-25T17:13:51.547Z,38.70
2019-05-25T17:16:35.167Z,38.70
2019-05-25T17:19:05.540Z,39.70
2019-05-25T17:21:35.749Z,39.60
2019-05-25T17:24:06.076Z,39.50
2019-05-25T17:26:36.296Z,39.60
2019-05-25T17:29:06.491Z,39.70
2019-05-25T17:31:36.686Z,40.40
2019-05-25T17:34:07.880Z,40.60
2019-05-25T17:36:38.067Z,40.70
2019-05-25T17:39:08.371Z,40.30
2019-05-25T17:41:40.593Z,41.20
2019-05-25T17:44:10.876Z,42.80
2019-05-25T17:46:41.072Z,43.70
2019-05-25T17:49:11.391Z,44.20
2019-05-25T17:51:41.585Z,43.50
2019-05-25T17:54:11.913Z,43.60
2019-05-25T17:56:42.123Z,43.30
2019-05-25T17:59:12.349Z,43.80
2019-05-25T18:01:42.569Z,43.60
2019-05-25T18:04:12.906Z,43.70
2019-05-25T18:06:43.179Z,43.70
2019-05-25T18:09:13.386Z,44.10
2019-05-25T18:11:43.606Z,44.10
2019-05-25T18:14:13.861Z,43.90
2019-05-25T18:16:44.153Z,44.20
2019-05-25T18:19:14.345Z,44.20
2019-05-25T18:21:44.913Z,44.60
2019-05-25T18:24:15.507Z,45.50
2019-05-25T18:26:46.092Z,47.60
2019-05-25T18:33:07.098Z,47.30
2019-05-25T18:35:37.343Z,47.30
2019-05-25T18:38:07.620Z,47.20
2019-05-25T18:40:38.213Z,46.80
2019-05-25T18:43:08.559Z,46.20
2019-05-25T18:49:20.828Z,46.00
2019-05-25T18:51:51.111Z,46.50
2019-05-25T18:54:21.715Z,47.00
2019-05-25T18:56:51.959Z,47.00
2019-05-25T18:59:22.287Z,47.20
2019-05-25T19:02:51.299Z,47.80
2019-05-25T19:05:21.511Z,48.00
2019-05-25T19:07:51.751Z,48.70
2019-05-25T19:10:21.963Z,48.60
2019-05-25T19:12:52.160Z,49.20
2019-05-25T19:15:43.151Z,49.10
2019-05-25T19:18:14.413Z,48.90
2019-05-25T19:20:44.654Z,49.10
2019-05-25T19:23:14.874Z,49.20
2019-05-25T19:25:45.093Z,49.10
2019-05-25T19:28:15.319Z,49.60
2019-05-25T19:30:45.605Z,49.60
2019-05-25T19:33:15.821Z,49.90
2019-05-25T19:35:46.077Z,50.50
2019-05-25T19:38:16.283Z,50.90
2019-05-25T19:40:46.483Z,51.00
2019-05-25T19:43:16.698Z,51.50
2019-05-25T19:45:47.563Z,51.70
2019-05-25T19:48:17.979Z,52.00
2019-05-25T19:50:48.355Z,52.60
2019-05-25T19:53:37.999Z,52.80
2019-05-25T19:56:08.211Z,53.00
2019-05-25T19:58:38.458Z,53.10
2019-05-25T20:05:15.955Z,53.80
2019-05-25T20:07:36.399Z,54.10
2019-05-25T20:10:07.216Z,54.70
2019-05-25T20:12:37.318Z,56.10
2019-05-25T20:15:08.234Z,55.30
2019-05-25T20:17:58.493Z,55.40
2019-05-25T20:20:28.768Z,55.60
2019-05-25T20:22:59.162Z,57.10
2019-05-25T20:25:29.473Z,56.60
2019-05-25T20:27:59.672Z,56.70
2019-05-25T20:34:11.491Z,57.00
2019-05-25T20:36:41.788Z,57.40
2019-05-25T20:39:12.071Z,57.20
2019-05-25T20:41:42.295Z,57.50
2019-05-25T20:44:12.488Z,57.60
2019-05-25T20:47:04.093Z,57.90
2019-05-25T20:49:34.433Z,58.30
2019-05-25T20:52:04.744Z,57.90
2019-05-25T20:54:34.933Z,57.90
2019-05-25T20:57:05.316Z,58.30
2019-05-25T20:59:36.799Z,58.60
2019-05-25T21:02:07.030Z,58.20
2019-05-25T21:04:37.286Z,58.70
2019-05-25T21:07:07.583Z,58.30
2019-05-25T21:09:37.915Z,59.10
2019-05-25T21:12:09.901Z,59.30
2019-05-25T21:14:40.236Z,58.60
2019-05-25T21:17:10.527Z,58.60
2019-05-25T21:19:40.785Z,58.30
2019-05-25T21:22:11.074Z,58.30
2019-05-25T21:24:41.403Z,58.20
2019-05-25T21:27:11.659Z,58.10
2019-05-25T21:29:41.893Z,57.90
2019-05-25T21:32:12.180Z,57.90
2019-05-25T21:34:42.379Z,57.80
2019-05-25T21:37:12.589Z,57.90
2019-05-25T21:39:42.796Z,57.90
2019-05-25T21:42:13.037Z,58.00
2019-05-25T21:44:43.218Z,58.40
2019-05-25T21:47:13.515Z,58.90
2019-05-25T21:49:43.767Z,58.80
2019-05-25T21:52:14.071Z,58.70
2019-05-25T21:54:44.313Z,59.50
2019-05-25T21:57:14.519Z,59.50
2019-05-25T21:59:44.720Z,59.50
2019-05-25T22:02:50.995Z,61.50
2019-05-25T22:05:21.268Z,61.00
2019-05-25T22:07:51.622Z,61.40
2019-05-25T22:10:21.815Z,61.00
2019-05-25T22:12:52.019Z,60.60
2019-05-25T22:15:22.303Z,60.40
2019-05-25T22:17:52.518Z,60.30
2019-05-25T22:20:22.719Z,60.70
2019-05-25T22:22:52.945Z,61.20
2019-05-25T22:25:23.199Z,61.10
2019-05-25T22:27:53.416Z,60.90
2019-05-25T22:30:23.615Z,60.90
2019-05-25T22:33:11.858Z,61.10
2019-05-25T22:35:42.070Z,61.20
2019-05-25T22:38:12.525Z,61.40
2019-05-25T22:40:42.997Z,61.30
2019-05-25T22:43:13.303Z,61.40
2019-05-25T22:45:43.518Z,61.50
2019-05-25T22:48:13.823Z,61.30
2019-05-25T22:50:44.019Z,62.10
2019-05-25T22:53:14.243Z,62.30
2019-05-25T22:55:44.450Z,62.10
2019-05-25T22:58:14.654Z,62.30
2019-05-25T23:00:44.864Z,62.60
2019-05-25T23:03:16.084Z,62.60
2019-05-25T23:05:46.288Z,63.30
2019-05-25T23:08:16.571Z,62.80
2019-05-25T23:10:46.762Z,63.10
2019-05-25T23:13:16.986Z,63.40
2019-05-25T23:15:47.191Z,63.80
2019-05-25T23:18:37.431Z,64.10
2019-05-25T23:21:07.703Z,63.80
2019-05-25T23:23:37.933Z,63.70
2019-05-25T23:26:08.191Z,64.60
2019-05-25T23:28:38.476Z,64.30
2019-05-25T23:31:08.671Z,63.30
2019-05-25T23:33:39.031Z,63.10
2019-05-25T23:36:09.230Z,63.80
2019-05-25T23:38:39.444Z,62.50
2019-05-25T23:41:10.694Z,62.40
2019-05-25T23:43:40.914Z,62.10
2019-05-25T23:46:11.109Z,61.70
2019-05-25T23:48:56.533Z,61.60
2019-05-25T23:51:26.734Z,61.50
2019-05-25T23:53:56.951Z,61.60
2019-05-25T23:56:27.143Z,61.50
2019-05-25T23:58:57.448Z,61.50
